createdAt,value
2023-09-21T00:01:57.618Z,69.29
2023-09-21T00:04:33.753Z,69.09
2023-09-21T00:07:07.077Z,68.99
2023-09-21T00:09:40.026Z,68.61
2023-09-21T00:12:12.267Z,69.35
2023-09-21T00:14:44.500Z,68.63
2023-09-21T00:17:19.008Z,68.78
2023-09-21T00:19:51.575Z,69.53
2023-09-21T00:22:23.788Z,69.90
2023-09-21T00:24:56.136Z,69.00
2023-09-21T00:27:30.745Z,69.34
2023-09-21T00:30:05.984Z,69.39
2023-09-21T00:32:42.976Z,70.31
2023-09-21T00:35:17.813Z,69.53
2023-09-21T00:37:54.946Z,69.75
2023-09-21T00:40:29.508Z,69.98
2023-09-21T00:43:07.612Z,69.59
2023-09-21T00:45:47.890Z,69.56
2023-09-21T00:48:25.506Z,69.75
2023-09-21T00:51:00.781Z,70.03
2023-09-21T00:53:34.407Z,69.84
2023-09-21T00:56:19.154Z,70.38
2023-09-21T00:58:55.278Z,70.23
2023-09-21T01:01:30.801Z,70.81
2023-09-21T01:04:08.006Z,69.77
2023-09-21T01:06:43.228Z,69.88
2023-09-21T01:09:18.994Z,70.38
2023-09-21T01:11:54.900Z,71.27
2023-09-21T01:14:30.279Z,71.01
2023-09-21T01:17:03.127Z,70.43
2023-09-21T01:19:37.828Z,70.60
2023-09-21T01:22:13.743Z,71.49
2023-09-21T01:24:47.947Z,71.08
2023-09-21T01:27:21.914Z,70.69
2023-09-21T01:29:53.735Z,70.83
2023-09-21T01:35:14.290Z,71.62
2023-09-21T01:37:47.642Z,70.93
2023-09-21T01:40:21.332Z,71.34
2023-09-21T01:42:53.606Z,71.34
2023-09-21T01:45:29.417Z,70.66
2023-09-21T01:48:02.678Z,70.55
2023-09-21T01:50:35.137Z,70.76
2023-09-21T01:53:09.539Z,71.65
2023-09-21T01:55:44.704Z,71.45
2023-09-21T01:58:17.968Z,71.64
2023-09-21T02:00:52.006Z,71.40
2023-09-21T02:03:35.488Z,70.50
2023-09-21T02:06:08.111Z,70.97
2023-09-21T02:08:40.755Z,71.17
2023-09-21T02:11:13.298Z,71.73
2023-09-21T02:13:46.062Z,71.50
2023-09-21T02:16:21.725Z,71.86
2023-09-21T02:18:53.982Z,71.48
2023-09-21T02:21:26.782Z,71.68
2023-09-21T02:24:01.717Z,71.56
2023-09-21T02:26:34.130Z,71.67
2023-09-21T02:29:07.890Z,71.60
2023-09-21T02:31:47.028Z,71.69
2023-09-21T02:34:19.282Z,72.10
2023-09-21T02:36:54.224Z,71.88
2023-09-21T02:39:27.351Z,71.40
2023-09-21T02:42:02.675Z,71.43
2023-09-21T02:44:37.378Z,71.56
2023-09-21T02:47:10.968Z,72.17
2023-09-21T02:49:43.452Z,71.44
2023-09-21T02:52:16.708Z,71.39
2023-09-21T02:54:48.983Z,71.92
2023-09-21T02:57:25.533Z,72.30
2023-09-21T03:00:08.081Z,71.96
2023-09-21T03:02:40.585Z,72.39
2023-09-21T03:05:15.170Z,72.33
2023-09-21T03:07:49.523Z,71.58
2023-09-21T03:10:22.302Z,71.83
2023-09-21T03:13:02.169Z,72.24
2023-09-21T03:15:36.097Z,71.91
2023-09-21T03:18:08.966Z,72.25
2023-09-21T03:20:45.520Z,72.23
2023-09-21T03:23:18.498Z,72.11
2023-09-21T03:25:52.781Z,72.38
2023-09-21T03:28:24.682Z,73.06
2023-09-21T03:30:58.798Z,72.34
2023-09-21T03:33:39.896Z,71.89
2023-09-21T03:36:17.962Z,72.24
2023-09-21T03:38:50.728Z,72.29
2023-09-21T03:41:23.107Z,72.75
2023-09-21T03:43:56.635Z,72.54
2023-09-21T03:46:38.044Z,72.12
2023-09-21T03:49:14.003Z,72.98
2023-09-21T03:51:48.927Z,72.84
2023-09-21T03:54:23.038Z,72.50
2023-09-21T03:56:55.431Z,73.37
2023-09-21T03:59:29.006Z,72.80
2023-09-21T04:02:01.893Z,73.22
2023-09-21T04:04:35.749Z,72.56
2023-09-21T04:07:14.238Z,72.41
2023-09-21T04:09:47.473Z,72.83
2023-09-21T04:12:19.943Z,73.29
2023-09-21T04:14:53.756Z,72.62
2023-09-21T04:17:30.613Z,72.94
2023-09-21T04:20:13.740Z,73.21
2023-09-21T04:22:48.231Z,73.12
2023-09-21T04:25:21.368Z,72.37
2023-09-21T04:27:56.503Z,73.45
2023-09-21T04:30:30.978Z,72.79
2023-09-21T04:33:08.280Z,72.66
2023-09-21T04:35:42.971Z,72.90
2023-09-21T04:38:15.368Z,73.10
2023-09-21T04:40:52.446Z,73.10
2023-09-21T04:43:24.974Z,73.92
2023-09-21T04:45:57.654Z,73.62
2023-09-21T04:48:35.095Z,73.67
2023-09-21T04:51:11.736Z,73.21
2023-09-21T04:53:44.847Z,72.98
2023-09-21T04:56:20.179Z,73.38
2023-09-21T04:58:53.070Z,73.44
2023-09-21T05:01:26.568Z,74.12
2023-09-21T05:03:58.078Z,74.38
2023-09-21T05:06:31.865Z,73.63
2023-09-21T05:09:05.181Z,73.29
2023-09-21T05:11:41.298Z,72.99
2023-09-21T05:14:14.719Z,74.03
2023-09-21T05:16:47.173Z,73.65
2023-09-21T05:19:20.424Z,74.34
2023-09-21T05:21:57.928Z,73.82
2023-09-21T05:24:34.308Z,74.06
2023-09-21T05:27:09.752Z,74.32
2023-09-21T05:29:43.944Z,74.43
2023-09-21T05:32:19.369Z,74.65
2023-09-21T05:34:55.248Z,74.46
2023-09-21T05:37:32.076Z,74.54
2023-09-21T05:40:08.965Z,74.41
2023-09-21T05:42:42.921Z,73.81
2023-09-21T05:45:15.800Z,74.15
2023-09-21T05:47:48.463Z,73.85
2023-09-21T05:50:24.320Z,74.06
2023-09-21T05:52:58.037Z,74.93
2023-09-21T05:55:30.869Z,74.31
2023-09-21T05:58:08.596Z,74.66
2023-09-21T06:00:42.426Z,74.38
2023-09-21T06:03:15.110Z,73.94
2023-09-21T06:05:48.024Z,74.52
2023-09-21T06:08:20.855Z,74.38
2023-09-21T06:10:53.566Z,74.44
2023-09-21T06:13:26.400Z,74.69
2023-09-21T06:15:59.089Z,74.20
2023-09-21T06:18:31.503Z,74.57
2023-09-21T06:21:05.964Z,73.73
2023-09-21T06:23:38.185Z,73.43
2023-09-21T06:26:10.731Z,71.59
2023-09-21T06:28:44.638Z,71.57
2023-09-21T06:31:17.935Z,70.92
2023-09-21T06:33:50.364Z,69.30
2023-09-21T06:36:23.117Z,68.42
2023-09-21T06:38:55.430Z,67.63
2023-09-21T06:41:27.806Z,66.45
2023-09-21T06:44:04.582Z,65.93
2023-09-21T06:46:37.491Z,65.22
2023-09-21T06:49:11.828Z,64.96
2023-09-21T06:51:44.231Z,65.65
2023-09-21T06:54:16.465Z,65.37
2023-09-21T06:56:49.738Z,65.26
2023-09-21T06:59:21.886Z,65.82
2023-09-21T07:01:54.764Z,66.35
2023-09-21T07:04:30.047Z,65.74
2023-09-21T07:07:09.638Z,66.14
2023-09-21T07:09:42.000Z,66.03
2023-09-21T07:12:16.336Z,66.05
2023-09-21T07:14:51.890Z,66.40
2023-09-21T07:17:25.569Z,66.08
2023-09-21T07:19:56.475Z,66.04
2023-09-21T07:22:31.035Z,65.96
2023-09-21T07:25:05.467Z,65.33
2023-09-21T07:27:41.157Z,65.43
2023-09-21T07:30:15.858Z,64.43
2023-09-21T07:32:48.250Z,63.68
2023-09-21T07:35:22.780Z,63.37
2023-09-21T07:37:55.381Z,64.42
2023-09-21T07:40:31.599Z,63.05
2023-09-21T07:43:04.766Z,61.95
2023-09-21T07:45:40.126Z,62.41
2023-09-21T07:48:12.601Z,62.78
2023-09-21T07:50:46.030Z,62.82
2023-09-21T07:53:18.553Z,62.87
2023-09-21T07:55:59.520Z,62.30
2023-09-21T07:58:32.052Z,60.99
2023-09-21T08:01:05.479Z,59.73
2023-09-21T08:03:37.020Z,58.32
2023-09-21T08:06:09.687Z,57.44
2023-09-21T08:08:42.426Z,57.05
2023-09-21T08:11:17.560Z,55.07
2023-09-21T08:13:50.109Z,53.31
2023-09-21T08:16:22.408Z,52.08
2023-09-21T08:18:55.080Z,50.27
2023-09-21T08:21:27.402Z,48.55
2023-09-21T08:24:00.338Z,50.15
2023-09-21T08:26:39.655Z,50.77
2023-09-21T08:29:13.030Z,51.59
2023-09-21T08:31:47.375Z,51.56
2023-09-21T08:34:20.760Z,52.07
2023-09-21T08:36:56.410Z,52.68
2023-09-21T08:39:29.680Z,52.02
2023-09-21T08:42:01.528Z,50.90
2023-09-21T08:44:35.916Z,49.60
2023-09-21T08:47:27.742Z,50.77
2023-09-21T08:50:08.623Z,52.10
2023-09-21T08:52:42.137Z,51.85
2023-09-21T08:55:15.338Z,50.29
2023-09-21T08:57:46.837Z,48.01
2023-09-21T09:00:23.392Z,46.96
2023-09-21T09:02:57.263Z,46.35
2023-09-21T09:05:30.993Z,46.18
2023-09-21T09:08:05.032Z,46.34
2023-09-21T09:10:44.395Z,46.51
2023-09-21T09:13:18.344Z,46.71
2023-09-21T09:15:51.173Z,47.01
2023-09-21T09:18:23.854Z,47.04
2023-09-21T09:20:58.368Z,47.23
2023-09-21T09:23:32.239Z,47.80
2023-09-21T09:26:13.562Z,47.51
2023-09-21T09:28:45.784Z,47.26
2023-09-21T09:31:19.370Z,47.73
2023-09-21T09:33:52.061Z,47.60
2023-09-21T09:36:24.353Z,47.27
2023-09-21T09:38:57.157Z,47.54
2023-09-21T09:41:33.355Z,47.49
2023-09-21T09:44:10.809Z,47.27
2023-09-21T09:46:47.732Z,47.40
2023-09-21T09:49:23.392Z,47.48
2023-09-21T09:52:01.423Z,47.54
2023-09-21T09:54:35.950Z,47.33
2023-09-21T09:57:15.876Z,47.34
2023-09-21T09:59:49.404Z,47.46
2023-09-21T10:02:24.023Z,46.99
2023-09-21T10:04:57.015Z,47.13
2023-09-21T10:07:30.789Z,47.34
2023-09-21T10:10:05.260Z,47.24
2023-09-21T10:12:40.374Z,47.08
2023-09-21T10:15:15.717Z,47.20
2023-09-21T10:17:52.282Z,46.86
2023-09-21T10:20:29.241Z,46.98
2023-09-21T10:23:07.710Z,46.75
2023-09-21T10:25:48.373Z,46.62
2023-09-21T10:28:41.344Z,46.79
2023-09-21T10:31:30.583Z,46.75
2023-09-21T10:34:17.803Z,46.70
2023-09-21T10:36:56.452Z,46.60
2023-09-21T10:39:31.611Z,46.78
2023-09-21T10:42:38.746Z,46.69
2023-09-21T10:45:13.264Z,46.46
2023-09-21T10:47:51.023Z,46.47
2023-09-21T10:50:27.376Z,46.48
2023-09-21T10:53:02.169Z,46.27
2023-09-21T10:55:36.522Z,46.11
2023-09-21T10:58:16.167Z,46.00
2023-09-21T11:00:49.845Z,46.30
2023-09-21T11:03:23.224Z,46.04
2023-09-21T11:05:55.699Z,46.03
2023-09-21T11:08:31.082Z,46.08
2023-09-21T11:11:04.897Z,46.16
2023-09-21T11:13:37.135Z,46.22
2023-09-21T11:16:15.343Z,45.79
2023-09-21T11:18:49.716Z,45.87
2023-09-21T11:21:23.735Z,46.01
2023-09-21T11:23:56.994Z,45.92
2023-09-21T11:26:30.446Z,46.15
2023-09-21T11:29:04.244Z,45.92
2023-09-21T11:31:36.921Z,45.81
2023-09-21T11:34:17.516Z,45.84
2023-09-21T11:36:53.859Z,45.69
2023-09-21T11:39:30.532Z,45.46
2023-09-21T11:42:02.929Z,45.69
2023-09-21T11:44:36.533Z,45.72
2023-09-21T11:47:11.079Z,45.13
2023-09-21T11:49:45.892Z,45.26
2023-09-21T11:52:18.378Z,45.38
2023-09-21T11:54:50.996Z,45.15
2023-09-21T11:57:23.608Z,45.19
2023-09-21T11:59:57.797Z,45.36
2023-09-21T12:02:38.939Z,45.33
2023-09-21T12:05:13.029Z,44.92
2023-09-21T12:07:45.503Z,44.87
2023-09-21T12:10:19.162Z,44.76
2023-09-21T12:12:52.013Z,44.95
2023-09-21T12:15:24.221Z,44.64
2023-09-21T12:17:56.714Z,44.94
2023-09-21T12:20:37.370Z,44.84
2023-09-21T12:23:10.436Z,44.75
2023-09-21T12:25:41.228Z,44.93
2023-09-21T12:28:14.052Z,44.92
2023-09-21T12:30:49.672Z,44.76
2023-09-21T12:36:00.198Z,45.11
2023-09-21T12:38:34.664Z,44.92
2023-09-21T12:41:07.640Z,44.95
2023-09-21T12:43:40.706Z,45.01
2023-09-21T12:46:12.932Z,44.99
2023-09-21T12:48:45.652Z,44.99
2023-09-21T12:51:18.467Z,44.86
2023-09-21T12:53:51.165Z,44.92
2023-09-21T12:56:24.184Z,44.87
2023-09-21T12:58:57.314Z,44.89
2023-09-21T13:01:32.188Z,44.56
2023-09-21T13:04:05.658Z,44.57
2023-09-21T13:06:43.558Z,44.76
2023-09-21T13:09:16.611Z,44.66
2023-09-21T13:11:48.832Z,44.29
2023-09-21T13:14:21.396Z,44.38
2023-09-21T13:16:53.845Z,44.32
2023-09-21T13:19:26.166Z,44.52
2023-09-21T13:21:58.496Z,44.34
2023-09-21T13:24:32.276Z,44.51
2023-09-21T13:27:05.488Z,44.09
2023-09-21T13:29:39.181Z,44.61
2023-09-21T13:32:11.980Z,44.50
2023-09-21T13:34:45.601Z,44.81
2023-09-21T13:37:18.111Z,44.68
2023-09-21T13:39:51.227Z,44.84
2023-09-21T13:42:25.640Z,44.45
2023-09-21T13:44:59.562Z,44.41
2023-09-21T13:47:32.098Z,44.50
2023-09-21T13:50:04.526Z,44.50
2023-09-21T13:52:38.246Z,44.46
2023-09-21T13:55:18.618Z,44.51
2023-09-21T13:57:53.461Z,44.43
2023-09-21T14:00:30.860Z,44.66
2023-09-21T14:03:03.790Z,45.00
2023-09-21T14:05:40.706Z,44.54
2023-09-21T14:08:13.299Z,44.90
2023-09-21T14:10:46.974Z,44.77
2023-09-21T14:13:19.274Z,44.55
2023-09-21T14:15:53.532Z,44.77
2023-09-21T14:18:25.889Z,44.83
2023-09-21T14:20:58.494Z,44.75
2023-09-21T14:23:32.269Z,44.58
2023-09-21T14:26:04.641Z,45.00
2023-09-21T14:28:37.250Z,44.66
2023-09-21T14:31:09.841Z,44.84
2023-09-21T14:33:42.504Z,44.74
2023-09-21T14:36:14.977Z,44.86
2023-09-21T14:38:47.985Z,44.80
2023-09-21T14:41:20.696Z,44.76
2023-09-21T14:43:53.586Z,44.97
2023-09-21T14:46:28.075Z,45.06
2023-09-21T14:49:00.499Z,44.83
2023-09-21T14:51:33.839Z,44.75
2023-09-21T14:54:08.278Z,44.75
2023-09-21T14:56:49.765Z,44.96
2023-09-21T14:59:23.462Z,45.13
2023-09-21T15:01:58.443Z,44.72
2023-09-21T15:04:34.182Z,45.12
2023-09-21T15:07:10.471Z,45.37
2023-09-21T15:09:44.559Z,45.45
2023-09-21T15:12:19.771Z,45.76
2023-09-21T15:14:52.198Z,45.43
2023-09-21T15:17:26.946Z,45.66
2023-09-21T15:19:59.376Z,45.60
2023-09-21T15:22:33.484Z,45.68
2023-09-21T15:25:06.145Z,45.89
2023-09-21T15:27:49.716Z,45.96
2023-09-21T15:30:20.667Z,46.18
2023-09-21T15:32:53.129Z,46.10
2023-09-21T15:35:25.980Z,46.23
2023-09-21T15:37:58.605Z,46.15
2023-09-21T15:40:31.937Z,46.41
2023-09-21T15:43:15.216Z,46.36
2023-09-21T15:45:48.132Z,46.41
2023-09-21T15:48:20.907Z,46.76
2023-09-21T15:50:57.171Z,46.62
2023-09-21T15:53:33.217Z,47.08
2023-09-21T15:56:05.952Z,47.25
2023-09-21T15:58:38.805Z,46.97
2023-09-21T16:01:13.131Z,47.09
2023-09-21T16:03:45.804Z,46.95
2023-09-21T16:06:18.670Z,47.28
2023-09-21T16:08:51.134Z,47.59
2023-09-21T16:11:23.838Z,47.31
2023-09-21T16:13:56.282Z,47.74
2023-09-21T16:16:30.838Z,47.91
2023-09-21T16:19:03.809Z,47.29
2023-09-21T16:21:39.612Z,47.89
2023-09-21T16:24:12.911Z,48.05
2023-09-21T16:26:45.394Z,48.18
2023-09-21T16:29:18.020Z,47.93
2023-09-21T16:31:53.037Z,48.37
2023-09-21T16:34:25.618Z,48.57
2023-09-21T16:36:58.185Z,48.20
2023-09-21T16:39:31.061Z,48.47
2023-09-21T16:42:03.866Z,48.45
2023-09-21T16:44:38.238Z,49.19
2023-09-21T16:47:11.669Z,48.63
2023-09-21T16:49:44.074Z,49.35
2023-09-21T16:52:19.569Z,49.17
2023-09-21T16:54:52.093Z,49.64
2023-09-21T16:57:24.518Z,49.20
2023-09-21T16:59:59.475Z,49.82
2023-09-21T17:02:36.024Z,49.92
2023-09-21T17:05:10.641Z,49.85
2023-09-21T17:07:43.464Z,50.44
2023-09-21T17:10:16.020Z,50.63
2023-09-21T17:12:51.455Z,50.59
2023-09-21T17:15:24.228Z,50.70
2023-09-21T17:17:56.812Z,50.44
2023-09-21T17:20:31.187Z,50.88
2023-09-21T17:23:03.605Z,50.70
2023-09-21T17:25:36.637Z,50.95
2023-09-21T17:28:11.583Z,50.92
2023-09-21T17:30:44.725Z,51.07
2023-09-21T17:33:17.218Z,51.45
2023-09-21T17:35:50.442Z,51.70
2023-09-21T17:38:23.420Z,51.71
2023-09-21T17:40:56.600Z,52.03
2023-09-21T17:43:31.468Z,52.32
2023-09-21T17:46:05.150Z,51.90
2023-09-21T17:48:38.586Z,52.15
2023-09-21T17:51:13.181Z,52.60
2023-09-21T17:53:45.776Z,52.42
2023-09-21T17:56:18.426Z,52.56
2023-09-21T17:58:50.893Z,52.95
2023-09-21T18:01:26.850Z,53.14
2023-09-21T18:04:02.442Z,53.41
2023-09-21T18:06:36.007Z,53.57
2023-09-21T18:09:11.090Z,53.78
2023-09-21T18:11:46.602Z,53.73
2023-09-21T18:14:18.873Z,53.97
2023-09-21T18:16:51.217Z,53.84
2023-09-21T18:19:23.464Z,53.91
2023-09-21T18:21:55.883Z,54.14
2023-09-21T18:24:30.186Z,54.51
2023-09-21T18:27:02.894Z,54.23
2023-09-21T18:29:35.453Z,54.87
2023-09-21T18:32:11.452Z,54.92
2023-09-21T18:34:44.172Z,54.94
2023-09-21T18:37:25.661Z,54.94
2023-09-21T18:39:58.724Z,54.96
2023-09-21T18:42:32.599Z,55.43
2023-09-21T18:45:03.381Z,54.98
2023-09-21T18:47:35.955Z,55.15
2023-09-21T18:50:11.069Z,55.28
2023-09-21T18:52:43.887Z,55.35
2023-09-21T18:55:17.007Z,55.69
2023-09-21T18:57:51.284Z,55.95
2023-09-21T19:00:24.510Z,55.79
2023-09-21T19:02:57.221Z,56.27
2023-09-21T19:05:32.183Z,56.40
2023-09-21T19:08:05.047Z,56.49
2023-09-21T19:10:37.749Z,56.23
2023-09-21T19:13:11.250Z,56.44
2023-09-21T19:15:44.173Z,56.74
2023-09-21T19:18:16.740Z,56.76
2023-09-21T19:20:51.053Z,56.73
2023-09-21T19:23:24.497Z,57.31
2023-09-21T19:25:59.417Z,57.02
2023-09-21T19:28:32.483Z,57.25
2023-09-21T19:31:07.842Z,57.51
2023-09-21T19:33:43.386Z,57.51
2023-09-21T19:36:17.348Z,57.56
2023-09-21T19:38:49.116Z,57.96
2023-09-21T19:41:21.704Z,57.64
2023-09-21T19:43:54.934Z,57.87
2023-09-21T19:46:28.089Z,58.29
2023-09-21T19:49:01.895Z,58.57
2023-09-21T19:51:35.142Z,58.31
2023-09-21T19:54:09.150Z,58.29
2023-09-21T19:56:44.307Z,58.52
2023-09-21T19:59:18.164Z,58.65
2023-09-21T20:01:50.634Z,58.93
2023-09-21T20:04:23.540Z,58.88
2023-09-21T20:06:57.306Z,59.12
2023-09-21T20:09:32.105Z,59.06
2023-09-21T20:12:10.638Z,59.33
2023-09-21T20:14:44.392Z,59.75
2023-09-21T20:17:17.321Z,59.48
2023-09-21T20:19:49.855Z,59.75
2023-09-21T20:22:22.420Z,60.00
2023-09-21T20:24:56.236Z,60.04
2023-09-21T20:27:27.111Z,60.14
2023-09-21T20:30:00.568Z,60.48
2023-09-21T20:32:35.871Z,60.12
2023-09-21T20:35:09.748Z,60.54
2023-09-21T20:37:42.167Z,60.48
2023-09-21T20:40:16.610Z,60.87
2023-09-21T20:42:49.196Z,60.69
2023-09-21T20:45:22.087Z,60.81
2023-09-21T20:47:54.631Z,60.82
2023-09-21T20:50:30.359Z,61.08
2023-09-21T20:53:05.611Z,61.34
2023-09-21T20:55:40.288Z,61.34
2023-09-21T20:58:15.192Z,61.17
2023-09-21T21:00:47.909Z,61.60
2023-09-21T21:03:20.736Z,61.36
2023-09-21T21:05:53.543Z,61.56
2023-09-21T21:08:30.208Z,61.55
2023-09-21T21:11:08.231Z,61.48
2023-09-21T21:13:40.792Z,61.73
2023-09-21T21:16:14.442Z,61.70
2023-09-21T21:18:47.435Z,61.93
2023-09-21T21:21:20.092Z,61.69
2023-09-21T21:23:52.517Z,61.72
2023-09-21T21:26:33.617Z,61.77
2023-09-21T21:29:06.016Z,61.91
2023-09-21T21:31:46.716Z,61.91
2023-09-21T21:34:19.550Z,61.95
2023-09-21T21:36:52.039Z,62.10
2023-09-21T21:39:37.942Z,61.95
2023-09-21T21:42:13.565Z,62.02
2023-09-21T21:44:45.858Z,62.53
2023-09-21T21:47:18.385Z,62.19
2023-09-21T21:49:50.901Z,62.28
2023-09-21T21:52:23.388Z,62.16
2023-09-21T21:54:57.332Z,62.33
2023-09-21T21:57:30.711Z,62.30
2023-09-21T22:00:06.494Z,62.22
2023-09-21T22:02:48.267Z,62.30
2023-09-21T22:05:29.616Z,62.41
2023-09-21T22:08:06.849Z,62.48
2023-09-21T22:10:39.425Z,62.38
2023-09-21T22:13:12.872Z,62.50
2023-09-21T22:15:45.554Z,62.66
2023-09-21T22:18:20.830Z,62.51
2023-09-21T22:20:53.156Z,62.58
2023-09-21T22:23:25.876Z,62.62
2023-09-21T22:25:58.265Z,62.62
2023-09-21T22:28:32.080Z,62.74
2023-09-21T22:31:11.687Z,62.83
2023-09-21T22:33:44.532Z,62.73
2023-09-21T22:36:17.506Z,62.58
2023-09-21T22:38:52.492Z,62.58
2023-09-21T22:41:25.239Z,62.71
2023-09-21T22:43:58.610Z,62.69
2023-09-21T22:46:32.755Z,62.60
2023-09-21T22:49:08.118Z,62.75
2023-09-21T22:51:40.652Z,62.55
2023-09-21T22:54:15.324Z,62.75
2023-09-21T22:56:51.424Z,62.42
2023-09-21T22:59:26.543Z,62.55
2023-09-21T23:01:59.449Z,62.69
2023-09-21T23:04:34.196Z,62.91
2023-09-21T23:07:14.151Z,63.12
2023-09-21T23:09:47.001Z,62.67
2023-09-21T23:12:21.779Z,62.67
2023-09-21T23:14:54.199Z,62.92
2023-09-21T23:17:31.196Z,62.86
2023-09-21T23:20:16.991Z,62.79
2023-09-21T23:22:51.018Z,63.01
2023-09-21T23:25:23.940Z,63.26
2023-09-21T23:27:58.001Z,62.91
2023-09-21T23:30:31.548Z,62.97
2023-09-21T23:33:09.470Z,63.16
2023-09-21T23:35:44.097Z,63.30
2023-09-21T23:38:16.947Z,63.28
2023-09-21T23:40:50.330Z,63.10
2023-09-21T23:43:22.608Z,63.47
2023-09-21T23:45:55.430Z,63.23
2023-09-21T23:48:31.732Z,63.40
2023-09-21T23:51:05.854Z,63.20
2023-09-21T23:53:38.928Z,63.56
2023-09-21T23:56:12.371Z,63.59
2023-09-21T23:58:48.030Z,63.34
